sensor_id;sensor_type;location;lat;lon;timestamp;P1;durP1;ratioP1;P2;durP2;ratioP2
76125;SDS011;65174;48.138;21.002;2023-03-14T00:01:45;7.00;;;4.25;;
76125;SDS011;65174;48.138;21.002;2023-03-14T00:04:48;8.57;;;5.03;;
76125;SDS011;65174;48.138;21.002;2023-03-14T00:07:50;6.10;;;4.23;;
76125;SDS011;65174;48.138;21.002;2023-03-14T00:10:53;7.13;;;4.35;;
76125;SDS011;65174;48.138;21.002;2023-03-14T00:13:55;11.60;;;5.43;;
76125;SDS011;65174;48.138;21.002;2023-03-14T00:16:58;9.43;;;5.43;;
76125;SDS011;65174;48.138;21.002;2023-03-14T00:20:00;9.63;;;5.15;;
76125;SDS011;65174;48.138;21.002;2023-03-14T00:23:11;11.97;;;5.20;;
76125;SDS011;65174;48.138;21.002;2023-03-14T00:26:17;9.85;;;5.65;;
76125;SDS011;65174;48.138;21.002;2023-03-14T00:29:21;11.27;;;5.95;;
76125;SDS011;65174;48.138;21.002;2023-03-14T00:32:23;13.05;;;6.53;;
76125;SDS011;65174;48.138;21.002;2023-03-14T00:35:25;12.10;;;6.65;;
76125;SDS011;65174;48.138;21.002;2023-03-14T00:38:29;11.70;;;6.57;;
76125;SDS011;65174;48.138;21.002;2023-03-14T00:41:32;10.35;;;6.18;;
76125;SDS011;65174;48.138;21.002;2023-03-14T00:44:34;11.35;;;6.35;;
76125;SDS011;65174;48.138;21.002;2023-03-14T00:47:41;10.30;;;6.22;;
76125;SDS011;65174;48.138;21.002;2023-03-14T00:50:48;10.40;;;6.35;;
76125;SDS011;65174;48.138;21.002;2023-03-14T00:53:50;13.77;;;7.10;;
76125;SDS011;65174;48.138;21.002;2023-03-14T00:56:52;11.85;;;6.70;;
76125;SDS011;65174;48.138;21.002;2023-03-14T00:59:55;13.30;;;7.18;;
76125;SDS011;65174;48.138;21.002;2023-03-14T01:02:57;10.30;;;6.32;;
76125;SDS011;65174;48.138;21.002;2023-03-14T01:06:16;11.50;;;6.45;;
76125;SDS011;65174;48.138;21.002;2023-03-14T01:09:19;12.20;;;6.33;;
76125;SDS011;65174;48.138;21.002;2023-03-14T01:12:22;13.23;;;6.93;;
76125;SDS011;65174;48.138;21.002;2023-03-14T01:15:24;8.68;;;5.72;;
76125;SDS011;65174;48.138;21.002;2023-03-14T01:18:26;10.52;;;6.55;;
76125;SDS011;65174;48.138;21.002;2023-03-14T01:21:32;15.93;;;6.03;;
76125;SDS011;65174;48.138;21.002;2023-03-14T01:24:36;11.70;;;6.43;;
76125;SDS011;65174;48.138;21.002;2023-03-14T01:27:39;15.38;;;6.93;;
76125;SDS011;65174;48.138;21.002;2023-03-14T01:30:42;9.57;;;5.80;;
76125;SDS011;65174;48.138;21.002;2023-03-14T01:33:46;9.13;;;5.70;;
76125;SDS011;65174;48.138;21.002;2023-03-14T01:36:49;10.55;;;5.35;;
76125;SDS011;65174;48.138;21.002;2023-03-14T01:39:52;11.83;;;5.57;;
76125;SDS011;65174;48.138;21.002;2023-03-14T01:42:55;10.68;;;5.90;;
76125;SDS011;65174;48.138;21.002;2023-03-14T01:52:34;9.35;;;5.50;;
76125;SDS011;65174;48.138;21.002;2023-03-14T01:55:50;7.67;;;4.33;;
76125;SDS011;65174;48.138;21.002;2023-03-14T01:58:54;9.38;;;6.07;;
76125;SDS011;65174;48.138;21.002;2023-03-14T02:01:57;11.07;;;6.40;;
76125;SDS011;65174;48.138;21.002;2023-03-14T02:05:00;10.20;;;6.00;;
76125;SDS011;65174;48.138;21.002;2023-03-14T02:08:08;11.68;;;6.80;;
76125;SDS011;65174;48.138;21.002;2023-03-14T02:11:26;14.17;;;5.80;;
76125;SDS011;65174;48.138;21.002;2023-03-14T02:14:48;8.30;;;5.40;;
76125;SDS011;65174;48.138;21.002;2023-03-14T02:17:55;12.07;;;7.03;;
76125;SDS011;65174;48.138;21.002;2023-03-14T02:24:46;11.82;;;6.40;;
76125;SDS011;65174;48.138;21.002;2023-03-14T02:28:10;9.97;;;5.43;;
76125;SDS011;65174;48.138;21.002;2023-03-14T02:31:20;14.82;;;5.68;;
76125;SDS011;65174;48.138;21.002;2023-03-14T02:34:24;10.18;;;5.40;;
76125;SDS011;65174;48.138;21.002;2023-03-14T02:37:30;8.10;;;4.80;;
76125;SDS011;65174;48.138;21.002;2023-03-14T02:40:43;7.10;;;4.68;;
76125;SDS011;65174;48.138;21.002;2023-03-14T02:43:46;6.50;;;4.00;;
76125;SDS011;65174;48.138;21.002;2023-03-14T02:46:49;5.18;;;2.63;;
76125;SDS011;65174;48.138;21.002;2023-03-14T02:49:52;9.82;;;5.38;;
76125;SDS011;65174;48.138;21.002;2023-03-14T02:53:00;5.35;;;3.58;;
76125;SDS011;65174;48.138;21.002;2023-03-14T02:56:04;11.73;;;4.53;;
76125;SDS011;65174;48.138;21.002;2023-03-14T02:59:08;6.40;;;3.53;;
76125;SDS011;65174;48.138;21.002;2023-03-14T03:02:17;8.77;;;4.43;;
76125;SDS011;65174;48.138;21.002;2023-03-14T03:05:19;8.45;;;4.72;;
76125;SDS011;65174;48.138;21.002;2023-03-14T03:08:22;7.30;;;3.50;;
76125;SDS011;65174;48.138;21.002;2023-03-14T03:11:26;9.93;;;5.73;;
76125;SDS011;65174;48.138;21.002;2023-03-14T03:14:28;7.13;;;3.23;;
76125;SDS011;65174;48.138;21.002;2023-03-14T03:17:34;9.02;;;5.50;;
76125;SDS011;65174;48.138;21.002;2023-03-14T03:20:37;7.75;;;3.25;;
76125;SDS011;65174;48.138;21.002;2023-03-14T03:23:39;10.13;;;6.22;;
76125;SDS011;65174;48.138;21.002;2023-03-14T03:26:41;9.38;;;5.05;;
76125;SDS011;65174;48.138;21.002;2023-03-14T03:29:45;11.13;;;5.73;;
76125;SDS011;65174;48.138;21.002;2023-03-14T03:32:47;15.73;;;7.47;;
76125;SDS011;65174;48.138;21.002;2023-03-14T03:35:50;10.82;;;6.82;;
76125;SDS011;65174;48.138;21.002;2023-03-14T03:38:59;16.90;;;7.20;;
76125;SDS011;65174;48.138;21.002;2023-03-14T03:42:01;12.95;;;8.05;;
76125;SDS011;65174;48.138;21.002;2023-03-14T03:51:14;13.15;;;7.45;;
76125;SDS011;65174;48.138;21.002;2023-03-14T03:54:18;14.40;;;7.78;;
76125;SDS011;65174;48.138;21.002;2023-03-14T03:57:20;18.42;;;9.00;;
76125;SDS011;65174;48.138;21.002;2023-03-14T04:00:23;15.00;;;7.90;;
76125;SDS011;65174;48.138;21.002;2023-03-14T04:03:26;15.30;;;8.17;;
76125;SDS011;65174;48.138;21.002;2023-03-14T04:06:30;17.25;;;7.65;;
76125;SDS011;65174;48.138;21.002;2023-03-14T04:09:34;13.48;;;7.45;;
76125;SDS011;65174;48.138;21.002;2023-03-14T04:12:44;15.88;;;7.50;;
76125;SDS011;65174;48.138;21.002;2023-03-14T04:15:51;16.10;;;8.82;;
76125;SDS011;65174;48.138;21.002;2023-03-14T04:18:59;24.00;;;9.67;;
76125;SDS011;65174;48.138;21.002;2023-03-14T04:22:02;15.32;;;7.85;;
76125;SDS011;65174;48.138;21.002;2023-03-14T04:25:09;19.40;;;9.93;;
76125;SDS011;65174;48.138;21.002;2023-03-14T04:28:16;25.80;;;12.02;;
76125;SDS011;65174;48.138;21.002;2023-03-14T04:31:20;16.08;;;8.13;;
76125;SDS011;65174;48.138;21.002;2023-03-14T04:34:24;17.07;;;9.13;;
76125;SDS011;65174;48.138;21.002;2023-03-14T04:37:29;15.07;;;7.05;;
76125;SDS011;65174;48.138;21.002;2023-03-14T04:40:36;12.68;;;7.15;;
76125;SDS011;65174;48.138;21.002;2023-03-14T04:43:40;13.43;;;7.50;;
76125;SDS011;65174;48.138;21.002;2023-03-14T04:46:45;14.52;;;8.52;;
76125;SDS011;65174;48.138;21.002;2023-03-14T04:49:47;16.03;;;8.17;;
76125;SDS011;65174;48.138;21.002;2023-03-14T04:52:50;14.52;;;8.57;;
76125;SDS011;65174;48.138;21.002;2023-03-14T04:55:54;16.00;;;8.55;;
76125;SDS011;65174;48.138;21.002;2023-03-14T04:59:00;13.20;;;7.93;;
76125;SDS011;65174;48.138;21.002;2023-03-14T05:02:04;11.90;;;7.27;;
76125;SDS011;65174;48.138;21.002;2023-03-14T05:05:32;12.70;;;8.00;;
76125;SDS011;65174;48.138;21.002;2023-03-14T05:08:53;13.80;;;8.35;;
76125;SDS011;65174;48.138;21.002;2023-03-14T05:12:34;13.23;;;7.15;;
76125;SDS011;65174;48.138;21.002;2023-03-14T05:16:02;10.88;;;6.60;;
76125;SDS011;65174;48.138;21.002;2023-03-14T05:19:23;10.10;;;6.35;;
76125;SDS011;65174;48.138;21.002;2023-03-14T05:22:46;11.40;;;5.50;;
76125;SDS011;65174;48.138;21.002;2023-03-14T05:26:18;10.98;;;6.47;;
76125;SDS011;65174;48.138;21.002;2023-03-14T05:29:51;12.70;;;5.30;;
76125;SDS011;65174;48.138;21.002;2023-03-14T05:33:11;8.32;;;4.50;;
76125;SDS011;65174;48.138;21.002;2023-03-14T05:36:39;10.87;;;6.60;;
76125;SDS011;65174;48.138;21.002;2023-03-14T05:40:00;9.93;;;5.40;;
76125;SDS011;65174;48.138;21.002;2023-03-14T05:43:17;10.10;;;4.63;;
76125;SDS011;65174;48.138;21.002;2023-03-14T05:46:29;12.55;;;6.70;;
76125;SDS011;65174;48.138;21.002;2023-03-14T05:49:51;10.43;;;5.03;;
76125;SDS011;65174;48.138;21.002;2023-03-14T05:53:28;8.20;;;4.65;;
76125;SDS011;65174;48.138;21.002;2023-03-14T05:57:07;9.27;;;5.20;;
76125;SDS011;65174;48.138;21.002;2023-03-14T06:00:43;9.48;;;6.20;;
76125;SDS011;65174;48.138;21.002;2023-03-14T06:04:05;9.68;;;4.80;;
76125;SDS011;65174;48.138;21.002;2023-03-14T06:07:07;9.30;;;3.53;;
76125;SDS011;65174;48.138;21.002;2023-03-14T06:10:10;5.30;;;3.63;;
76125;SDS011;65174;48.138;21.002;2023-03-14T06:13:12;7.23;;;4.70;;
76125;SDS011;65174;48.138;21.002;2023-03-14T06:16:16;8.48;;;4.53;;
76125;SDS011;65174;48.138;21.002;2023-03-14T06:19:19;7.30;;;4.22;;
76125;SDS011;65174;48.138;21.002;2023-03-14T06:22:22;7.30;;;4.20;;
76125;SDS011;65174;48.138;21.002;2023-03-14T06:25:24;7.53;;;3.70;;
76125;SDS011;65174;48.138;21.002;2023-03-14T06:28:26;7.47;;;3.87;;
76125;SDS011;65174;48.138;21.002;2023-03-14T06:31:33;7.32;;;3.38;;
76125;SDS011;65174;48.138;21.002;2023-03-14T06:34:38;12.13;;;5.03;;
76125;SDS011;65174;48.138;21.002;2023-03-14T06:37:42;6.13;;;3.00;;
76125;SDS011;65174;48.138;21.002;2023-03-14T06:40:45;8.02;;;4.32;;
76125;SDS011;65174;48.138;21.002;2023-03-14T06:43:51;7.33;;;4.40;;
76125;SDS011;65174;48.138;21.002;2023-03-14T06:46:56;6.78;;;3.47;;
76125;SDS011;65174;48.138;21.002;2023-03-14T06:49:59;5.38;;;3.75;;
76125;SDS011;65174;48.138;21.002;2023-03-14T06:53:02;6.80;;;2.70;;
76125;SDS011;65174;48.138;21.002;2023-03-14T06:56:05;6.55;;;3.95;;
76125;SDS011;65174;48.138;21.002;2023-03-14T06:59:09;5.40;;;3.50;;
76125;SDS011;65174;48.138;21.002;2023-03-14T07:02:11;10.02;;;3.30;;
76125;SDS011;65174;48.138;21.002;2023-03-14T07:05:16;8.73;;;4.40;;
76125;SDS011;65174;48.138;21.002;2023-03-14T07:08:18;7.40;;;4.50;;
76125;SDS011;65174;48.138;21.002;2023-03-14T07:11:21;6.10;;;3.60;;
76125;SDS011;65174;48.138;21.002;2023-03-14T07:14:24;7.03;;;4.10;;
76125;SDS011;65174;48.138;21.002;2023-03-14T07:17:26;5.10;;;3.33;;
76125;SDS011;65174;48.138;21.002;2023-03-14T07:20:30;6.03;;;3.50;;
76125;SDS011;65174;48.138;21.002;2023-03-14T07:23:35;6.43;;;3.60;;
76125;SDS011;65174;48.138;21.002;2023-03-14T07:26:37;6.15;;;3.80;;
76125;SDS011;65174;48.138;21.002;2023-03-14T07:29:40;6.90;;;5.00;;
76125;SDS011;65174;48.138;21.002;2023-03-14T07:32:43;6.25;;;4.18;;
76125;SDS011;65174;48.138;21.002;2023-03-14T07:35:47;6.90;;;4.70;;
76125;SDS011;65174;48.138;21.002;2023-03-14T07:38:50;7.88;;;3.95;;
76125;SDS011;65174;48.138;21.002;2023-03-14T07:42:12;7.25;;;4.45;;
76125;SDS011;65174;48.138;21.002;2023-03-14T07:45:27;8.00;;;4.43;;
76125;SDS011;65174;48.138;21.002;2023-03-14T07:48:30;7.57;;;4.43;;
76125;SDS011;65174;48.138;21.002;2023-03-14T07:51:32;7.20;;;4.50;;
76125;SDS011;65174;48.138;21.002;2023-03-14T07:54:34;7.82;;;4.70;;
76125;SDS011;65174;48.138;21.002;2023-03-14T07:57:36;6.85;;;4.50;;
76125;SDS011;65174;48.138;21.002;2023-03-14T08:00:40;10.47;;;4.80;;
76125;SDS011;65174;48.138;21.002;2023-03-14T08:03:42;8.02;;;4.18;;
76125;SDS011;65174;48.138;21.002;2023-03-14T08:06:45;5.40;;;3.35;;
76125;SDS011;65174;48.138;21.002;2023-03-14T08:09:47;5.97;;;3.88;;
76125;SDS011;65174;48.138;21.002;2023-03-14T08:12:49;8.07;;;4.47;;
76125;SDS011;65174;48.138;21.002;2023-03-14T08:15:52;8.57;;;4.50;;
76125;SDS011;65174;48.138;21.002;2023-03-14T08:18:54;8.38;;;4.60;;
76125;SDS011;65174;48.138;21.002;2023-03-14T08:21:57;7.40;;;3.80;;
76125;SDS011;65174;48.138;21.002;2023-03-14T08:24:59;9.32;;;4.82;;
76125;SDS011;65174;48.138;21.002;2023-03-14T08:28:02;19.98;;;4.38;;
76125;SDS011;65174;48.138;21.002;2023-03-14T08:31:04;6.97;;;4.00;;
76125;SDS011;65174;48.138;21.002;2023-03-14T08:34:06;7.20;;;4.05;;
76125;SDS011;65174;48.138;21.002;2023-03-14T08:37:09;10.13;;;4.50;;
76125;SDS011;65174;48.138;21.002;2023-03-14T08:40:26;9.43;;;4.40;;
76125;SDS011;65174;48.138;21.002;2023-03-14T08:43:28;20.63;;;5.00;;
76125;SDS011;65174;48.138;21.002;2023-03-14T08:46:31;18.00;;;4.57;;
76125;SDS011;65174;48.138;21.002;2023-03-14T08:49:33;7.93;;;4.80;;
76125;SDS011;65174;48.138;21.002;2023-03-14T08:52:35;11.82;;;4.82;;
76125;SDS011;65174;48.138;21.002;2023-03-14T08:55:39;7.40;;;4.25;;
76125;SDS011;65174;48.138;21.002;2023-03-14T08:58:41;8.95;;;4.43;;
76125;SDS011;65174;48.138;21.002;2023-03-14T09:01:44;9.10;;;5.00;;
76125;SDS011;65174;48.138;21.002;2023-03-14T09:04:46;11.90;;;6.20;;
76125;SDS011;65174;48.138;21.002;2023-03-14T09:07:48;9.13;;;5.53;;
76125;SDS011;65174;48.138;21.002;2023-03-14T09:10:51;11.80;;;6.30;;
76125;SDS011;65174;48.138;21.002;2023-03-14T09:13:53;17.13;;;6.38;;
76125;SDS011;65174;48.138;21.002;2023-03-14T09:16:55;10.70;;;5.90;;
76125;SDS011;65174;48.138;21.002;2023-03-14T09:20:00;7.90;;;5.40;;
76125;SDS011;65174;48.138;21.002;2023-03-14T09:23:08;12.93;;;6.13;;
76125;SDS011;65174;48.138;21.002;2023-03-14T09:26:10;6.47;;;4.50;;
76125;SDS011;65174;48.138;21.002;2023-03-14T09:29:12;6.63;;;4.50;;
76125;SDS011;65174;48.138;21.002;2023-03-14T09:32:15;28.30;;;4.77;;
76125;SDS011;65174;48.138;21.002;2023-03-14T09:35:17;8.48;;;4.20;;
76125;SDS011;65174;48.138;21.002;2023-03-14T09:38:19;10.23;;;4.63;;
76125;SDS011;65174;48.138;21.002;2023-03-14T09:41:29;19.00;;;4.82;;
76125;SDS011;65174;48.138;21.002;2023-03-14T09:44:37;49.25;;;6.82;;
76125;SDS011;65174;48.138;21.002;2023-03-14T09:47:44;8.00;;;4.47;;
76125;SDS011;65174;48.138;21.002;2023-03-14T09:51:01;7.60;;;4.55;;
76125;SDS011;65174;48.138;21.002;2023-03-14T09:54:15;6.38;;;4.00;;
76125;SDS011;65174;48.138;21.002;2023-03-14T09:57:39;6.22;;;3.83;;
76125;SDS011;65174;48.138;21.002;2023-03-14T10:00:43;8.73;;;3.75;;
76125;SDS011;65174;48.138;21.002;2023-03-14T10:03:46;4.80;;;3.50;;
76125;SDS011;65174;48.138;21.002;2023-03-14T10:06:49;8.07;;;4.50;;
76125;SDS011;65174;48.138;21.002;2023-03-14T10:09:51;10.90;;;5.68;;
76125;SDS011;65174;48.138;21.002;2023-03-14T10:12:57;11.25;;;6.05;;
76125;SDS011;65174;48.138;21.002;2023-03-14T10:16:03;10.40;;;5.53;;
76125;SDS011;65174;48.138;21.002;2023-03-14T10:19:10;13.07;;;6.00;;
76125;SDS011;65174;48.138;21.002;2023-03-14T10:22:14;14.45;;;5.40;;
76125;SDS011;65174;48.138;21.002;2023-03-14T10:25:24;16.60;;;6.15;;
76125;SDS011;65174;48.138;21.002;2023-03-14T10:28:30;47.92;;;5.97;;
76125;SDS011;65174;48.138;21.002;2023-03-14T10:31:46;13.02;;;7.00;;
76125;SDS011;65174;48.138;21.002;2023-03-14T10:35:27;16.03;;;7.60;;
76125;SDS011;65174;48.138;21.002;2023-03-14T10:38:25;14.00;;;7.30;;
76125;SDS011;65174;48.138;21.002;2023-03-14T10:41:38;14.50;;;7.30;;
76125;SDS011;65174;48.138;21.002;2023-03-14T10:44:40;14.80;;;5.38;;
76125;SDS011;65174;48.138;21.002;2023-03-14T10:47:50;13.07;;;5.55;;
76125;SDS011;65174;48.138;21.002;2023-03-14T10:54:20;17.70;;;5.88;;
76125;SDS011;65174;48.138;21.002;2023-03-14T10:57:25;13.10;;;5.90;;
76125;SDS011;65174;48.138;21.002;2023-03-14T11:00:28;8.82;;;4.90;;
76125;SDS011;65174;48.138;21.002;2023-03-14T11:03:35;19.05;;;5.85;;
76125;SDS011;65174;48.138;21.002;2023-03-14T11:13:30;6.80;;;4.05;;
76125;SDS011;65174;48.138;21.002;2023-03-14T11:23:08;30.27;;;4.30;;
76125;SDS011;65174;48.138;21.002;2023-03-14T11:26:25;7.38;;;3.63;;
76125;SDS011;65174;48.138;21.002;2023-03-14T11:30:12;7.13;;;3.13;;
76125;SDS011;65174;48.138;21.002;2023-03-14T11:36:09;5.47;;;2.70;;
76125;SDS011;65174;48.138;21.002;2023-03-14T11:39:14;10.10;;;3.47;;
76125;SDS011;65174;48.138;21.002;2023-03-14T11:42:18;4.13;;;2.60;;
76125;SDS011;65174;48.138;21.002;2023-03-14T11:45:29;5.43;;;3.10;;
76125;SDS011;65174;48.138;21.002;2023-03-14T11:48:40;24.58;;;4.18;;
76125;SDS011;65174;48.138;21.002;2023-03-14T11:51:56;6.28;;;2.88;;
76125;SDS011;65174;48.138;21.002;2023-03-14T11:55:10;24.10;;;4.03;;
76125;SDS011;65174;48.138;21.002;2023-03-14T12:01:32;8.57;;;3.17;;
76125;SDS011;65174;48.138;21.002;2023-03-14T12:17:36;9.52;;;2.28;;
76125;SDS011;65174;48.138;21.002;2023-03-14T12:20:40;5.40;;;3.08;;
76125;SDS011;65174;48.138;21.002;2023-03-14T12:23:52;6.82;;;2.88;;
76125;SDS011;65174;48.138;21.002;2023-03-14T12:27:01;5.70;;;2.63;;
76125;SDS011;65174;48.138;21.002;2023-03-14T12:30:14;8.70;;;3.15;;
76125;SDS011;65174;48.138;21.002;2023-03-14T12:33:28;8.40;;;3.03;;
76125;SDS011;65174;48.138;21.002;2023-03-14T12:40:36;4.93;;;2.30;;
76125;SDS011;65174;48.138;21.002;2023-03-14T12:43:39;6.20;;;2.70;;
76125;SDS011;65174;48.138;21.002;2023-03-14T12:46:42;4.00;;;2.60;;
76125;SDS011;65174;48.138;21.002;2023-03-14T12:49:46;7.45;;;2.47;;
76125;SDS011;65174;48.138;21.002;2023-03-14T12:56:40;7.65;;;2.72;;
76125;SDS011;65174;48.138;21.002;2023-03-14T13:02:54;76.47;;;7.03;;
76125;SDS011;65174;48.138;21.002;2023-03-14T13:06:05;5.47;;;2.17;;
76125;SDS011;65174;48.138;21.002;2023-03-14T13:12:36;4.45;;;2.28;;
76125;SDS011;65174;48.138;21.002;2023-03-14T13:15:43;12.30;;;2.50;;
76125;SDS011;65174;48.138;21.002;2023-03-14T13:18:48;9.20;;;2.30;;
76125;SDS011;65174;48.138;21.002;2023-03-14T13:22:15;25.73;;;3.13;;
76125;SDS011;65174;48.138;21.002;2023-03-14T13:25:21;19.05;;;3.20;;
76125;SDS011;65174;48.138;21.002;2023-03-14T13:28:24;3.55;;;2.17;;
76125;SDS011;65174;48.138;21.002;2023-03-14T13:31:28;5.03;;;2.00;;
76125;SDS011;65174;48.138;21.002;2023-03-14T13:34:32;4.03;;;1.88;;
76125;SDS011;65174;48.138;21.002;2023-03-14T13:37:39;3.83;;;1.92;;
76125;SDS011;65174;48.138;21.002;2023-03-14T13:40:42;6.60;;;1.98;;
76125;SDS011;65174;48.138;21.002;2023-03-14T13:43:46;5.43;;;1.92;;
76125;SDS011;65174;48.138;21.002;2023-03-14T13:46:50;5.07;;;2.77;;
76125;SDS011;65174;48.138;21.002;2023-03-14T13:49:52;9.80;;;2.45;;
76125;SDS011;65174;48.138;21.002;2023-03-14T13:52:55;8.02;;;2.30;;
76125;SDS011;65174;48.138;21.002;2023-03-14T13:56:02;14.25;;;6.05;;
76125;SDS011;65174;48.138;21.002;2023-03-14T13:59:20;5.55;;;2.72;;
76125;SDS011;65174;48.138;21.002;2023-03-14T14:02:26;6.17;;;2.10;;
76125;SDS011;65174;48.138;21.002;2023-03-14T14:05:29;43.20;;;4.70;;
76125;SDS011;65174;48.138;21.002;2023-03-14T14:08:33;59.70;;;5.10;;
76125;SDS011;65174;48.138;21.002;2023-03-14T14:11:46;11.68;;;3.67;;
76125;SDS011;65174;48.138;21.002;2023-03-14T14:15:21;3.30;;;2.10;;
76125;SDS011;65174;48.138;21.002;2023-03-14T14:18:27;3.27;;;2.40;;
76125;SDS011;65174;48.138;21.002;2023-03-14T14:21:32;7.00;;;2.00;;
76125;SDS011;65174;48.138;21.002;2023-03-14T14:24:34;6.13;;;2.35;;
76125;SDS011;65174;48.138;21.002;2023-03-14T14:27:39;16.77;;;2.03;;
76125;SDS011;65174;48.138;21.002;2023-03-14T14:30:44;5.65;;;2.25;;
76125;SDS011;65174;48.138;21.002;2023-03-14T14:34:17;4.77;;;1.90;;
76125;SDS011;65174;48.138;21.002;2023-03-14T14:37:21;5.47;;;2.05;;
76125;SDS011;65174;48.138;21.002;2023-03-14T14:40:30;5.00;;;1.73;;
76125;SDS011;65174;48.138;21.002;2023-03-14T14:43:33;25.25;;;3.40;;
76125;SDS011;65174;48.138;21.002;2023-03-14T14:46:40;5.68;;;2.38;;
76125;SDS011;65174;48.138;21.002;2023-03-14T14:50:50;5.03;;;2.10;;
76125;SDS011;65174;48.138;21.002;2023-03-14T14:54:52;7.00;;;1.98;;
76125;SDS011;65174;48.138;21.002;2023-03-14T14:58:57;11.73;;;4.63;;
76125;SDS011;65174;48.138;21.002;2023-03-14T15:02:01;14.55;;;4.72;;
76125;SDS011;65174;48.138;21.002;2023-03-14T15:05:04;22.02;;;4.88;;
76125;SDS011;65174;48.138;21.002;2023-03-14T15:08:09;8.73;;;2.57;;
76125;SDS011;65174;48.138;21.002;2023-03-14T15:11:19;11.00;;;2.22;;
76125;SDS011;65174;48.138;21.002;2023-03-14T15:14:24;7.57;;;2.40;;
76125;SDS011;65174;48.138;21.002;2023-03-14T15:17:26;25.27;;;3.33;;
76125;SDS011;65174;48.138;21.002;2023-03-14T15:20:29;7.22;;;2.60;;
76125;SDS011;65174;48.138;21.002;2023-03-14T15:23:32;8.67;;;2.37;;
76125;SDS011;65174;48.138;21.002;2023-03-14T15:26:34;4.25;;;1.85;;
76125;SDS011;65174;48.138;21.002;2023-03-14T15:29:36;10.23;;;2.58;;
76125;SDS011;65174;48.138;21.002;2023-03-14T15:32:39;12.00;;;2.70;;
76125;SDS011;65174;48.138;21.002;2023-03-14T15:35:42;11.07;;;2.53;;
76125;SDS011;65174;48.138;21.002;2023-03-14T15:38:45;7.20;;;3.27;;
76125;SDS011;65174;48.138;21.002;2023-03-14T15:41:47;19.27;;;6.18;;
76125;SDS011;65174;48.138;21.002;2023-03-14T15:44:49;13.30;;;5.90;;
76125;SDS011;65174;48.138;21.002;2023-03-14T15:47:51;14.98;;;5.63;;
76125;SDS011;65174;48.138;21.002;2023-03-14T15:50:54;19.02;;;6.00;;
76125;SDS011;65174;48.138;21.002;2023-03-14T15:53:56;22.87;;;9.27;;
76125;SDS011;65174;48.138;21.002;2023-03-14T15:57:16;18.65;;;7.70;;
76125;SDS011;65174;48.138;21.002;2023-03-14T16:00:19;38.00;;;11.40;;
76125;SDS011;65174;48.138;21.002;2023-03-14T16:03:26;55.22;;;15.68;;
76125;SDS011;65174;48.138;21.002;2023-03-14T16:06:29;25.85;;;8.07;;
76125;SDS011;65174;48.138;21.002;2023-03-14T16:09:32;13.30;;;6.23;;
76125;SDS011;65174;48.138;21.002;2023-03-14T16:12:34;19.33;;;6.60;;
76125;SDS011;65174;48.138;21.002;2023-03-14T16:15:36;14.65;;;5.03;;
76125;SDS011;65174;48.138;21.002;2023-03-14T16:18:39;10.65;;;4.07;;
76125;SDS011;65174;48.138;21.002;2023-03-14T16:21:42;9.80;;;4.20;;
76125;SDS011;65174;48.138;21.002;2023-03-14T16:24:44;6.53;;;3.20;;
76125;SDS011;65174;48.138;21.002;2023-03-14T16:27:46;12.45;;;3.83;;
76125;SDS011;65174;48.138;21.002;2023-03-14T16:30:52;10.30;;;3.85;;
76125;SDS011;65174;48.138;21.002;2023-03-14T16:34:01;13.23;;;2.85;;
76125;SDS011;65174;48.138;21.002;2023-03-14T16:37:04;7.72;;;2.97;;
76125;SDS011;65174;48.138;21.002;2023-03-14T16:40:07;8.03;;;3.43;;
76125;SDS011;65174;48.138;21.002;2023-03-14T16:43:30;9.52;;;2.67;;
76125;SDS011;65174;48.138;21.002;2023-03-14T16:46:34;4.45;;;1.88;;
76125;SDS011;65174;48.138;21.002;2023-03-14T16:49:37;10.90;;;2.00;;
76125;SDS011;65174;48.138;21.002;2023-03-14T16:52:39;4.97;;;2.22;;
76125;SDS011;65174;48.138;21.002;2023-03-14T16:55:41;16.73;;;2.77;;
76125;SDS011;65174;48.138;21.002;2023-03-14T16:58:44;14.05;;;2.90;;
76125;SDS011;65174;48.138;21.002;2023-03-14T17:01:47;5.85;;;2.40;;
76125;SDS011;65174;48.138;21.002;2023-03-14T17:04:50;6.72;;;2.20;;
76125;SDS011;65174;48.138;21.002;2023-03-14T17:07:53;4.63;;;2.70;;
76125;SDS011;65174;48.138;21.002;2023-03-14T17:10:55;6.90;;;2.20;;
76125;SDS011;65174;48.138;21.002;2023-03-14T17:13:58;5.38;;;2.38;;
76125;SDS011;65174;48.138;21.002;2023-03-14T17:17:01;11.63;;;4.97;;
76125;SDS011;65174;48.138;21.002;2023-03-14T17:20:04;7.30;;;2.90;;
76125;SDS011;65174;48.138;21.002;2023-03-14T17:23:13;8.10;;;4.50;;
76125;SDS011;65174;48.138;21.002;2023-03-14T17:26:15;11.80;;;6.20;;
76125;SDS011;65174;48.138;21.002;2023-03-14T17:29:19;9.50;;;7.45;;
76125;SDS011;65174;48.138;21.002;2023-03-14T17:32:21;10.45;;;6.45;;
76125;SDS011;65174;48.138;21.002;2023-03-14T17:36:23;10.07;;;3.10;;
76125;SDS011;65174;48.138;21.002;2023-03-14T17:40:25;7.10;;;2.75;;
76125;SDS011;65174;48.138;21.002;2023-03-14T17:44:30;13.20;;;5.03;;
76125;SDS011;65174;48.138;21.002;2023-03-14T17:47:33;17.80;;;6.80;;
76125;SDS011;65174;48.138;21.002;2023-03-14T17:50:35;29.75;;;7.82;;
76125;SDS011;65174;48.138;21.002;2023-03-14T17:53:38;11.23;;;6.38;;
76125;SDS011;65174;48.138;21.002;2023-03-14T17:56:41;17.13;;;6.65;;
76125;SDS011;65174;48.138;21.002;2023-03-14T17:59:50;20.47;;;7.27;;
76125;SDS011;65174;48.138;21.002;2023-03-14T18:02:54;15.98;;;6.35;;
76125;SDS011;65174;48.138;21.002;2023-03-14T18:06:03;36.60;;;6.35;;
76125;SDS011;65174;48.138;21.002;2023-03-14T18:09:06;12.07;;;4.88;;
76125;SDS011;65174;48.138;21.002;2023-03-14T18:12:09;16.15;;;6.18;;
76125;SDS011;65174;48.138;21.002;2023-03-14T18:15:11;27.80;;;6.67;;
76125;SDS011;65174;48.138;21.002;2023-03-14T18:18:17;23.48;;;7.13;;
76125;SDS011;65174;48.138;21.002;2023-03-14T18:21:21;17.30;;;7.68;;
76125;SDS011;65174;48.138;21.002;2023-03-14T18:24:23;10.23;;;5.95;;
76125;SDS011;65174;48.138;21.002;2023-03-14T18:27:26;13.02;;;5.40;;
76125;SDS011;65174;48.138;21.002;2023-03-14T18:30:31;13.80;;;5.90;;
76125;SDS011;65174;48.138;21.002;2023-03-14T18:33:34;13.18;;;6.72;;
76125;SDS011;65174;48.138;21.002;2023-03-14T18:36:38;15.93;;;6.30;;
76125;SDS011;65174;48.138;21.002;2023-03-14T18:39:41;33.95;;;12.18;;
76125;SDS011;65174;48.138;21.002;2023-03-14T18:42:43;33.00;;;16.20;;
76125;SDS011;65174;48.138;21.002;2023-03-14T18:45:47;16.07;;;10.30;;
76125;SDS011;65174;48.138;21.002;2023-03-14T18:48:49;19.90;;;9.77;;
76125;SDS011;65174;48.138;21.002;2023-03-14T18:51:57;12.23;;;6.82;;
76125;SDS011;65174;48.138;21.002;2023-03-14T18:54:59;10.60;;;6.03;;
76125;SDS011;65174;48.138;21.002;2023-03-14T18:58:01;11.05;;;5.15;;
76125;SDS011;65174;48.138;21.002;2023-03-14T19:01:05;8.87;;;4.23;;
76125;SDS011;65174;48.138;21.002;2023-03-14T19:04:07;14.70;;;4.72;;
76125;SDS011;65174;48.138;21.002;2023-03-14T19:07:12;7.82;;;4.35;;
76125;SDS011;65174;48.138;21.002;2023-03-14T19:10:15;15.07;;;5.53;;
76125;SDS011;65174;48.138;21.002;2023-03-14T19:13:18;12.63;;;6.25;;
76125;SDS011;65174;48.138;21.002;2023-03-14T19:16:20;16.30;;;5.47;;
76125;SDS011;65174;48.138;21.002;2023-03-14T19:19:25;23.23;;;7.43;;
76125;SDS011;65174;48.138;21.002;2023-03-14T19:22:27;12.50;;;5.90;;
76125;SDS011;65174;48.138;21.002;2023-03-14T19:25:30;12.77;;;4.55;;
76125;SDS011;65174;48.138;21.002;2023-03-14T19:28:32;10.70;;;4.25;;
76125;SDS011;65174;48.138;21.002;2023-03-14T19:31:34;6.97;;;4.10;;